DFPKC LFTZ-EDLW
Flight info
| Callsign | DFPKC |
|---|---|
| Flight time | N/A |
| Altitude | 28000 |
| Route | LFTZ IRMA2R IRMAR DCT GILIR DCT EQRAZ V36 AKELU N852 SUTAL DCT ABILU Z850 ADEMI ADEMI2A EDLW |
| Aircraft | P46T/L-SBDGRWY/SB1 |
Departure
| Time | 2026-04-13 15:23 |
|---|---|
| Airport | La Môle Airport (LFTZ) |
Arrival
| Time | N/A |
|---|---|
| Airport | Dortmund Airport (EDLW) |
| Time | Latitude | Longitude | Altitude | Speed | Heading |
|---|---|---|---|---|---|
| 2026-04-13 15:09 | 43.20394 | 6.47595 | 57 ft | 0 kts | 334° |
| 2026-04-13 15:21 | 43.20388 | 6.47585 | 57 ft | 6 kts | 172° |
| 2026-04-13 15:21 | 43.20338 | 6.47545 | 64 ft | 14 kts | 251° |
| 2026-04-13 15:21 | 43.20292 | 6.47550 | 65 ft | 12 kts | 72° |
| 2026-04-13 15:22 | 43.20316 | 6.47605 | 65 ft | 21 kts | 52° |
| 2026-04-13 15:22 | 43.20474 | 6.48020 | 64 ft | 77 kts | 63° |
| 2026-04-13 15:22 | 43.20808 | 6.48848 | 137 ft | 113 kts | 59° |
| 2026-04-13 15:22 | 43.21292 | 6.49796 | 467 ft | 124 kts | 56° |
| 2026-04-13 15:23 | 43.21786 | 6.50776 | 854 ft | 136 kts | 57° |
| 2026-04-13 15:23 | 43.22340 | 6.51979 | 1217 ft | 146 kts | 57° |
| 2026-04-13 15:23 | 43.22583 | 6.53179 | 2009 ft | 128 kts | 96° |
| 2026-04-13 15:23 | 43.22437 | 6.54395 | 2444 ft | 131 kts | 95° |
| 2026-04-13 15:24 | 43.22332 | 6.55630 | 2930 ft | 130 kts | 95° |
| 2026-04-13 15:24 | 43.22224 | 6.56858 | 3377 ft | 130 kts | 93° |
| 2026-04-13 15:24 | 43.22119 | 6.58081 | 3844 ft | 128 kts | 92° |
| 2026-04-13 15:24 | 43.22019 | 6.59303 | 4265 ft | 130 kts | 92° |
| 2026-04-13 15:25 | 43.21909 | 6.60521 | 4715 ft | 129 kts | 95° |
| 2026-04-13 15:25 | 43.21767 | 6.61740 | 5162 ft | 130 kts | 94° |
| 2026-04-13 15:25 | 43.21634 | 6.62962 | 5613 ft | 129 kts | 94° |
| 2026-04-13 15:25 | 43.21499 | 6.64183 | 6048 ft | 130 kts | 94° |
| 2026-04-13 15:26 | 43.21364 | 6.65424 | 6455 ft | 132 kts | 94° |
| 2026-04-13 15:26 | 43.21227 | 6.66670 | 6901 ft | 132 kts | 94° |
| 2026-04-13 15:26 | 43.21087 | 6.67911 | 7320 ft | 132 kts | 94° |
| 2026-04-13 15:26 | 43.20947 | 6.69164 | 7736 ft | 133 kts | 94° |
| 2026-04-13 15:27 | 43.20807 | 6.70406 | 8132 ft | 134 kts | 94° |
| 2026-04-13 15:27 | 43.20664 | 6.71675 | 8543 ft | 135 kts | 94° |
| 2026-04-13 15:27 | 43.20520 | 6.72957 | 8960 ft | 136 kts | 94° |
| 2026-04-13 15:27 | 43.20373 | 6.74263 | 9377 ft | 137 kts | 94° |
| 2026-04-13 15:28 | 43.20228 | 6.75545 | 9766 ft | 138 kts | 94° |
| 2026-04-13 15:28 | 43.20081 | 6.76849 | 10151 ft | 139 kts | 94° |
| 2026-04-13 15:28 | 43.19932 | 6.78162 | 10534 ft | 140 kts | 94° |
| 2026-04-13 15:28 | 43.19783 | 6.79483 | 10937 ft | 141 kts | 94° |
| 2026-04-13 15:29 | 43.19632 | 6.80816 | 11338 ft | 142 kts | 95° |
| 2026-04-13 15:29 | 43.19688 | 6.82127 | 11719 ft | 138 kts | 59° |
| 2026-04-13 15:29 | 43.20377 | 6.83015 | 12105 ft | 139 kts | 30° |
| 2026-04-13 15:29 | 43.21328 | 6.83286 | 12493 ft | 143 kts | 4° |
| 2026-04-13 15:30 | 43.22323 | 6.83299 | 12877 ft | 144 kts | 6° |
| 2026-04-13 15:30 | 43.23326 | 6.83347 | 13274 ft | 145 kts | 6° |
| 2026-04-13 15:30 | 43.24337 | 6.83404 | 13660 ft | 146 kts | 6° |
| 2026-04-13 15:30 | 43.25355 | 6.83466 | 14013 ft | 147 kts | 6° |
| 2026-04-13 15:31 | 43.26384 | 6.83529 | 14367 ft | 149 kts | 6° |
| 2026-04-13 15:31 | 43.27423 | 6.83593 | 14723 ft | 150 kts | 6° |
| 2026-04-13 15:31 | 43.28469 | 6.83657 | 15093 ft | 151 kts | 6° |
| 2026-04-13 15:31 | 43.29528 | 6.83724 | 15471 ft | 153 kts | 6° |
| 2026-04-13 15:32 | 43.30601 | 6.83789 | 15840 ft | 155 kts | 6° |
| 2026-04-13 15:32 | 43.31685 | 6.83856 | 16215 ft | 157 kts | 6° |
| 2026-04-13 15:32 | 43.32783 | 6.83924 | 16591 ft | 158 kts | 6° |
| 2026-04-13 15:32 | 43.33875 | 6.83992 | 16953 ft | 160 kts | 6° |
| 2026-04-13 15:33 | 43.34992 | 6.84061 | 17320 ft | 162 kts | 6° |
| 2026-04-13 15:33 | 43.36121 | 6.84131 | 17687 ft | 163 kts | 5° |
| 2026-04-13 15:33 | 43.37261 | 6.84201 | 18033 ft | 165 kts | 5° |
| 2026-04-13 15:34 | 43.39565 | 6.84344 | 18658 ft | 167 kts | 5° |
| 2026-04-13 15:34 | 43.40731 | 6.84417 | 18974 ft | 168 kts | 5° |
| 2026-04-13 15:34 | 43.41902 | 6.84489 | 19289 ft | 169 kts | 5° |
| 2026-04-13 15:34 | 43.43079 | 6.84562 | 19616 ft | 170 kts | 5° |
| 2026-04-13 15:35 | 43.44263 | 6.84636 | 19944 ft | 171 kts | 5° |
| 2026-04-13 15:35 | 43.45456 | 6.84710 | 20269 ft | 172 kts | 5° |
| 2026-04-13 15:35 | 43.46653 | 6.84785 | 20583 ft | 173 kts | 5° |
| 2026-04-13 15:35 | 43.47861 | 6.84859 | 20897 ft | 174 kts | 4° |
| 2026-04-13 15:36 | 43.49074 | 6.84934 | 21230 ft | 175 kts | 4° |
| 2026-04-13 15:36 | 43.50294 | 6.85010 | 21552 ft | 176 kts | 4° |
| 2026-04-13 15:36 | 43.51525 | 6.85087 | 21884 ft | 178 kts | 4° |
| 2026-04-13 15:36 | 43.52764 | 6.85164 | 22207 ft | 179 kts | 4° |
| 2026-04-13 15:37 | 43.54015 | 6.85242 | 22533 ft | 180 kts | 3° |
| 2026-04-13 15:37 | 43.55270 | 6.85320 | 22859 ft | 181 kts | 3° |
| 2026-04-13 15:37 | 43.56532 | 6.85399 | 23185 ft | 183 kts | 3° |
| 2026-04-13 15:37 | 43.57808 | 6.85478 | 23464 ft | 184 kts | 3° |
| 2026-04-13 15:38 | 43.59069 | 6.85557 | 23745 ft | 184 kts | 3° |
| 2026-04-13 15:38 | 43.60347 | 6.85636 | 24050 ft | 184 kts | 3° |
| 2026-04-13 15:38 | 43.61626 | 6.85717 | 24345 ft | 184 kts | 3° |
| 2026-04-13 15:38 | 43.62907 | 6.85797 | 24649 ft | 185 kts | 2° |
| 2026-04-13 15:39 | 43.64194 | 6.85876 | 24937 ft | 185 kts | 2° |
| 2026-04-13 15:39 | 43.65484 | 6.85957 | 25220 ft | 186 kts | 2° |
| 2026-04-13 15:39 | 43.66772 | 6.86038 | 25497 ft | 186 kts | 2° |
| 2026-04-13 15:39 | 43.68067 | 6.86119 | 25776 ft | 186 kts | 2° |
| 2026-04-13 15:40 | 43.69360 | 6.86200 | 26057 ft | 186 kts | 2° |
| 2026-04-13 15:40 | 43.70657 | 6.86281 | 26339 ft | 187 kts | 2° |
| 2026-04-13 15:40 | 43.71957 | 6.86363 | 26628 ft | 187 kts | 2° |
| 2026-04-13 15:40 | 43.73254 | 6.86444 | 26917 ft | 187 kts | 2° |
| 2026-04-13 15:41 | 43.74560 | 6.86526 | 27210 ft | 188 kts | 2° |
| 2026-04-13 15:41 | 43.75870 | 6.86608 | 27505 ft | 189 kts | 2° |
| 2026-04-13 15:41 | 43.77196 | 6.86692 | 27698 ft | 196 kts | 2° |
| 2026-04-13 15:41 | 43.78612 | 6.86784 | 27712 ft | 210 kts | 2° |
| 2026-04-13 15:42 | 43.80106 | 6.86882 | 27713 ft | 220 kts | 2° |
| 2026-04-13 15:42 | 43.81664 | 6.86983 | 27715 ft | 228 kts | 2° |
| 2026-04-13 15:42 | 43.83271 | 6.87085 | 27713 ft | 234 kts | 2° |
| 2026-04-13 15:42 | 43.84911 | 6.87189 | 27714 ft | 239 kts | 2° |
| 2026-04-13 15:43 | 43.86575 | 6.87295 | 27716 ft | 242 kts | 2° |
| 2026-04-13 15:43 | 43.88269 | 6.87402 | 27718 ft | 245 kts | 2° |
| 2026-04-13 15:43 | 43.89979 | 6.87510 | 27709 ft | 247 kts | 2° |
| 2026-04-13 15:43 | 43.91707 | 6.87619 | 27722 ft | 248 kts | 2° |
| 2026-04-13 15:44 | 43.93413 | 6.87726 | 27724 ft | 249 kts | 2° |
| 2026-04-13 15:44 | 43.95154 | 6.87836 | 27728 ft | 251 kts | 2° |
| 2026-04-13 15:44 | 43.96898 | 6.87950 | 27727 ft | 251 kts | 2° |
| 2026-04-13 15:44 | 43.98672 | 6.88061 | 27721 ft | 252 kts | 2° |
| 2026-04-13 15:45 | 44.00401 | 6.88168 | 27730 ft | 252 kts | 2° |
| 2026-04-13 15:45 | 44.02156 | 6.88279 | 27726 ft | 252 kts | 2° |
| 2026-04-13 15:45 | 44.03909 | 6.88391 | 27735 ft | 252 kts | 2° |
| 2026-04-13 15:45 | 44.05667 | 6.88501 | 27732 ft | 253 kts | 2° |
| 2026-04-13 15:46 | 44.07445 | 6.88614 | 27729 ft | 253 kts | 2° |
| 2026-04-13 15:46 | 44.09183 | 6.88725 | 27734 ft | 253 kts | 2° |
| 2026-04-13 15:46 | 44.10941 | 6.88836 | 27729 ft | 253 kts | 2° |
| 2026-04-13 15:46 | 44.12704 | 6.88947 | 27733 ft | 253 kts | 2° |
| 2026-04-13 15:47 | 44.14465 | 6.89031 | 27723 ft | 253 kts | 358° |
| 2026-04-13 15:47 | 44.16213 | 6.88793 | 27724 ft | 253 kts | 353° |
| 2026-04-13 15:47 | 44.17960 | 6.88508 | 27736 ft | 253 kts | 353° |
| 2026-04-13 15:47 | 44.19710 | 6.88244 | 27733 ft | 253 kts | 354° |
| 2026-04-13 15:48 | 44.21456 | 6.87985 | 27734 ft | 253 kts | 354° |
| 2026-04-13 15:48 | 44.23205 | 6.87722 | 27740 ft | 253 kts | 354° |
| 2026-04-13 15:48 | 44.24958 | 6.87456 | 27740 ft | 253 kts | 354° |
| 2026-04-13 15:48 | 44.26713 | 6.87191 | 27737 ft | 253 kts | 354° |
| 2026-04-13 15:49 | 44.28464 | 6.86926 | 27744 ft | 253 kts | 354° |
| 2026-04-13 15:49 | 44.30219 | 6.86661 | 27739 ft | 253 kts | 354° |
| 2026-04-13 15:49 | 44.31972 | 6.86395 | 27753 ft | 253 kts | 354° |
| 2026-04-13 15:49 | 44.33589 | 6.86148 | 27776 ft | 213 kts | 353° |
| 2026-04-13 15:50 | 44.35028 | 6.85920 | 27700 ft | 213 kts | 353° |
| 2026-04-13 15:50 | 44.36526 | 6.85691 | 27743 ft | 221 kts | 354° |
| 2026-04-13 15:50 | 44.38092 | 6.85459 | 27756 ft | 229 kts | 353° |
| 2026-04-13 15:50 | 44.39696 | 6.85220 | 27756 ft | 235 kts | 354° |
| 2026-04-13 15:51 | 44.41342 | 6.84971 | 27765 ft | 240 kts | 354° |
| 2026-04-13 15:51 | 44.43010 | 6.84717 | 27773 ft | 243 kts | 354° |
| 2026-04-13 15:51 | 44.44704 | 6.84460 | 27772 ft | 246 kts | 354° |
| 2026-04-13 15:51 | 44.46411 | 6.84202 | 27777 ft | 248 kts | 354° |
| 2026-04-13 15:52 | 44.48132 | 6.83941 | 27781 ft | 250 kts | 354° |
| 2026-04-13 15:52 | 44.49861 | 6.83678 | 27783 ft | 251 kts | 354° |
| 2026-04-13 15:52 | 44.51603 | 6.83412 | 27783 ft | 252 kts | 354° |
| 2026-04-13 15:52 | 44.53349 | 6.83146 | 27788 ft | 253 kts | 354° |
| 2026-04-13 15:53 | 44.55096 | 6.82879 | 27790 ft | 253 kts | 354° |
| 2026-04-13 15:53 | 44.56852 | 6.82612 | 27789 ft | 254 kts | 354° |
| 2026-04-13 15:53 | 44.58608 | 6.82344 | 27789 ft | 254 kts | 354° |
| 2026-04-13 15:53 | 44.60371 | 6.82074 | 27791 ft | 254 kts | 354° |
| 2026-04-13 15:54 | 44.62127 | 6.81806 | 27790 ft | 254 kts | 354° |
| 2026-04-13 15:54 | 44.63891 | 6.81535 | 27789 ft | 255 kts | 354° |
| 2026-04-13 15:54 | 44.65654 | 6.81266 | 27785 ft | 255 kts | 354° |
| 2026-04-13 15:54 | 44.67409 | 6.80997 | 27793 ft | 255 kts | 354° |
| 2026-04-13 15:55 | 44.68578 | 6.80818 | 27787 ft | 255 kts | 354° |
| 2026-04-13 15:55 | 44.70345 | 6.80547 | 27785 ft | 256 kts | 354° |
| 2026-04-13 15:55 | 44.72689 | 6.80186 | 27795 ft | 256 kts | 354° |
| 2026-04-13 15:55 | 44.74459 | 6.79914 | 27791 ft | 256 kts | 354° |
| 2026-04-13 15:56 | 44.76233 | 6.79643 | 27796 ft | 256 kts | 354° |
| 2026-04-13 15:56 | 44.77431 | 6.79459 | 27796 ft | 256 kts | 354° |
| 2026-04-13 15:56 | 44.79777 | 6.79097 | 27799 ft | 256 kts | 354° |
| 2026-04-13 15:56 | 44.81535 | 6.78698 | 27802 ft | 256 kts | 351° |
| 2026-04-13 15:57 | 44.82719 | 6.78417 | 27804 ft | 256 kts | 351° |
| 2026-04-13 15:57 | 44.84478 | 6.78013 | 27800 ft | 256 kts | 351° |
| 2026-04-13 15:57 | 44.86218 | 6.77610 | 27803 ft | 256 kts | 351° |
| 2026-04-13 15:57 | 44.87999 | 6.77192 | 27803 ft | 256 kts | 351° |
| 2026-04-13 15:58 | 44.89736 | 6.76783 | 27812 ft | 256 kts | 351° |
| 2026-04-13 15:58 | 44.91521 | 6.76364 | 27802 ft | 257 kts | 351° |
| 2026-04-13 15:58 | 44.93263 | 6.75956 | 27815 ft | 257 kts | 351° |
| 2026-04-13 15:58 | 44.95026 | 6.75542 | 27812 ft | 257 kts | 351° |
| 2026-04-13 15:59 | 44.96791 | 6.75127 | 27822 ft | 257 kts | 351° |
| 2026-04-13 15:59 | 44.98557 | 6.74711 | 27818 ft | 257 kts | 351° |
| 2026-04-13 15:59 | 45.00323 | 6.74296 | 27815 ft | 258 kts | 351° |
| 2026-04-13 15:59 | 45.02093 | 6.73878 | 27816 ft | 258 kts | 351° |
| 2026-04-13 16:00 | 45.03865 | 6.73461 | 27821 ft | 258 kts | 351° |
| 2026-04-13 16:00 | 45.05635 | 6.73044 | 27824 ft | 258 kts | 351° |
| 2026-04-13 16:00 | 45.07406 | 6.72626 | 27816 ft | 258 kts | 351° |
| 2026-04-13 16:00 | 45.09184 | 6.72206 | 27818 ft | 259 kts | 351° |
| 2026-04-13 16:01 | 45.10961 | 6.71786 | 27825 ft | 259 kts | 351° |
| 2026-04-13 16:01 | 45.12736 | 6.71366 | 27830 ft | 259 kts | 351° |
| 2026-04-13 16:01 | 45.14518 | 6.70945 | 27832 ft | 260 kts | 351° |
| 2026-04-13 16:01 | 45.16301 | 6.70524 | 27833 ft | 260 kts | 351° |
| 2026-04-13 16:02 | 45.18086 | 6.70100 | 27832 ft | 260 kts | 351° |
| 2026-04-13 16:02 | 45.19874 | 6.69676 | 27830 ft | 260 kts | 351° |
| 2026-04-13 16:02 | 45.21666 | 6.69251 | 27828 ft | 261 kts | 351° |
| 2026-04-13 16:02 | 45.23455 | 6.68827 | 27844 ft | 261 kts | 351° |
| 2026-04-13 16:03 | 45.25247 | 6.68401 | 27841 ft | 262 kts | 351° |
| 2026-04-13 16:03 | 45.27047 | 6.67974 | 27847 ft | 262 kts | 351° |
| 2026-04-13 16:03 | 45.28844 | 6.67547 | 27849 ft | 262 kts | 351° |
| 2026-04-13 16:03 | 45.30620 | 6.67124 | 27848 ft | 262 kts | 351° |
| 2026-04-13 16:04 | 45.32443 | 6.66689 | 27847 ft | 262 kts | 351° |
| 2026-04-13 16:04 | 45.34221 | 6.66266 | 27854 ft | 263 kts | 351° |
| 2026-04-13 16:04 | 45.36025 | 6.65836 | 27854 ft | 263 kts | 350° |
| 2026-04-13 16:04 | 45.37830 | 6.65406 | 27855 ft | 263 kts | 351° |
| 2026-04-13 16:05 | 45.39633 | 6.64976 | 27854 ft | 263 kts | 351° |
| 2026-04-13 16:05 | 45.41435 | 6.64544 | 27864 ft | 262 kts | 350° |
| 2026-04-13 16:05 | 45.43234 | 6.64114 | 27863 ft | 263 kts | 351° |
| 2026-04-13 16:05 | 45.45045 | 6.63683 | 27864 ft | 264 kts | 350° |
| 2026-04-13 16:06 | 45.46861 | 6.63248 | 27862 ft | 264 kts | 350° |
| 2026-04-13 16:06 | 45.48674 | 6.62813 | 27859 ft | 265 kts | 351° |
| 2026-04-13 16:06 | 45.50492 | 6.62377 | 27859 ft | 265 kts | 351° |
| 2026-04-13 16:06 | 45.52308 | 6.61942 | 27861 ft | 265 kts | 351° |
| 2026-04-13 16:07 | 45.54128 | 6.61506 | 27863 ft | 266 kts | 351° |
| 2026-04-13 16:07 | 45.55955 | 6.61067 | 27869 ft | 267 kts | 351° |
| 2026-04-13 16:07 | 45.57790 | 6.60626 | 27871 ft | 268 kts | 351° |
| 2026-04-13 16:07 | 45.59635 | 6.60183 | 27872 ft | 269 kts | 351° |
| 2026-04-13 16:08 | 45.61477 | 6.59741 | 27871 ft | 269 kts | 351° |
| 2026-04-13 16:08 | 45.63331 | 6.59294 | 27869 ft | 270 kts | 351° |
| 2026-04-13 16:08 | 45.65159 | 6.58854 | 27873 ft | 270 kts | 351° |
| 2026-04-13 16:08 | 45.67037 | 6.58402 | 27876 ft | 271 kts | 351° |
| 2026-04-13 16:09 | 45.68895 | 6.57953 | 27879 ft | 271 kts | 351° |
| 2026-04-13 16:09 | 45.70729 | 6.57511 | 27880 ft | 270 kts | 351° |
| 2026-04-13 16:09 | 45.72607 | 6.57057 | 27883 ft | 270 kts | 351° |
| 2026-04-13 16:09 | 45.74440 | 6.56615 | 27881 ft | 271 kts | 351° |
| 2026-04-13 16:10 | 45.76302 | 6.56165 | 27881 ft | 271 kts | 351° |
| 2026-04-13 16:10 | 45.78164 | 6.55713 | 27889 ft | 271 kts | 351° |
| 2026-04-13 16:10 | 45.80030 | 6.55261 | 27890 ft | 272 kts | 351° |
| 2026-04-13 16:10 | 45.81892 | 6.54811 | 27894 ft | 272 kts | 351° |
| 2026-04-13 16:11 | 45.83758 | 6.54358 | 27900 ft | 272 kts | 351° |
| 2026-04-13 16:11 | 45.85619 | 6.53906 | 27905 ft | 271 kts | 351° |
| 2026-04-13 16:11 | 45.87483 | 6.53453 | 27905 ft | 272 kts | 351° |
| 2026-04-13 16:11 | 45.89347 | 6.53001 | 27905 ft | 272 kts | 350° |
| 2026-04-13 16:12 | 45.91213 | 6.52547 | 27903 ft | 272 kts | 350° |
| 2026-04-13 16:12 | 45.93077 | 6.52093 | 27913 ft | 272 kts | 350° |
| 2026-04-13 16:12 | 45.94942 | 6.51639 | 27911 ft | 272 kts | 350° |
| 2026-04-13 16:12 | 45.96808 | 6.51184 | 27911 ft | 272 kts | 350° |
| 2026-04-13 16:13 | 45.98676 | 6.50729 | 27914 ft | 272 kts | 350° |
| 2026-04-13 16:13 | 46.00542 | 6.50274 | 27919 ft | 272 kts | 350° |
| 2026-04-13 16:13 | 46.02414 | 6.49816 | 27914 ft | 273 kts | 350° |
| 2026-04-13 16:13 | 46.04286 | 6.49359 | 27915 ft | 273 kts | 350° |
| 2026-04-13 16:14 | 46.06161 | 6.48901 | 27913 ft | 273 kts | 350° |
| 2026-04-13 16:14 | 46.08056 | 6.48436 | 27917 ft | 273 kts | 350° |
| 2026-04-13 16:14 | 46.09905 | 6.47984 | 27912 ft | 274 kts | 350° |
| 2026-04-13 16:14 | 46.11785 | 6.47524 | 27909 ft | 274 kts | 350° |
| 2026-04-13 16:15 | 46.13660 | 6.47063 | 27914 ft | 274 kts | 350° |
| 2026-04-13 16:15 | 46.15541 | 6.46602 | 27913 ft | 274 kts | 349° |
| 2026-04-13 16:15 | 46.17422 | 6.46140 | 27918 ft | 274 kts | 349° |
| 2026-04-13 16:15 | 46.19313 | 6.45676 | 27918 ft | 275 kts | 349° |
| 2026-04-13 16:16 | 46.21197 | 6.45213 | 27920 ft | 275 kts | 349° |
| 2026-04-13 16:16 | 46.23089 | 6.44747 | 27923 ft | 275 kts | 349° |
| 2026-04-13 16:16 | 46.24976 | 6.44283 | 27923 ft | 276 kts | 349° |
| 2026-04-13 16:16 | 46.26871 | 6.43816 | 27921 ft | 276 kts | 349° |
| 2026-04-13 16:17 | 46.28763 | 6.43349 | 27923 ft | 276 kts | 349° |
| 2026-04-13 16:17 | 46.30635 | 6.42888 | 27924 ft | 276 kts | 349° |
| 2026-04-13 16:17 | 46.32551 | 6.42414 | 27923 ft | 276 kts | 349° |
| 2026-04-13 16:17 | 46.34451 | 6.41945 | 27920 ft | 277 kts | 349° |
| 2026-04-13 16:18 | 46.36322 | 6.41482 | 27920 ft | 277 kts | 349° |
| 2026-04-13 16:18 | 46.38221 | 6.41013 | 27923 ft | 277 kts | 349° |
| 2026-04-13 16:18 | 46.40123 | 6.40542 | 27924 ft | 277 kts | 349° |
| 2026-04-13 16:18 | 46.42029 | 6.40070 | 27924 ft | 278 kts | 349° |
| 2026-04-13 16:19 | 46.43937 | 6.39596 | 27926 ft | 278 kts | 349° |
| 2026-04-13 16:19 | 46.45842 | 6.39123 | 27929 ft | 278 kts | 349° |
| 2026-04-13 16:19 | 46.47752 | 6.38649 | 27925 ft | 278 kts | 349° |
| 2026-04-13 16:19 | 46.49660 | 6.38175 | 27926 ft | 279 kts | 349° |
| 2026-04-13 16:20 | 46.51572 | 6.37700 | 27929 ft | 279 kts | 349° |
| 2026-04-13 16:20 | 46.53486 | 6.37224 | 27930 ft | 279 kts | 349° |
| 2026-04-13 16:20 | 46.55401 | 6.36747 | 27932 ft | 279 kts | 349° |
| 2026-04-13 16:20 | 46.57315 | 6.36270 | 27933 ft | 279 kts | 349° |
| 2026-04-13 16:21 | 46.59231 | 6.35792 | 27937 ft | 280 kts | 349° |
| 2026-04-13 16:21 | 46.61146 | 6.35314 | 27939 ft | 280 kts | 349° |
| 2026-04-13 16:21 | 46.63067 | 6.34833 | 27943 ft | 281 kts | 349° |
| 2026-04-13 16:21 | 46.64999 | 6.34352 | 27941 ft | 282 kts | 349° |
| 2026-04-13 16:22 | 46.66933 | 6.33870 | 27944 ft | 282 kts | 349° |
| 2026-04-13 16:22 | 46.68863 | 6.33386 | 27941 ft | 282 kts | 349° |
| 2026-04-13 16:22 | 46.72730 | 6.32417 | 27950 ft | 283 kts | 348° |
| 2026-04-13 16:23 | 46.74670 | 6.31930 | 27955 ft | 283 kts | 348° |
| 2026-04-13 16:23 | 46.76608 | 6.31443 | 27951 ft | 283 kts | 348° |
| 2026-04-13 16:23 | 46.78554 | 6.30954 | 27960 ft | 284 kts | 348° |
| 2026-04-13 16:23 | 46.80502 | 6.30465 | 27961 ft | 284 kts | 348° |
| 2026-04-13 16:24 | 46.82447 | 6.29976 | 27963 ft | 284 kts | 348° |
| 2026-04-13 16:24 | 46.84396 | 6.29485 | 27964 ft | 284 kts | 348° |
| 2026-04-13 16:24 | 46.86342 | 6.28995 | 27968 ft | 284 kts | 348° |
| 2026-04-13 16:24 | 46.88290 | 6.28504 | 27968 ft | 284 kts | 348° |
| 2026-04-13 16:25 | 46.90204 | 6.28021 | 27970 ft | 284 kts | 348° |
| 2026-04-13 16:25 | 46.91660 | 6.27653 | 27966 ft | 284 kts | 348° |
| 2026-04-13 16:25 | 46.93611 | 6.27161 | 27973 ft | 284 kts | 348° |
| 2026-04-13 16:25 | 46.95559 | 6.26668 | 27971 ft | 285 kts | 348° |
| 2026-04-13 16:26 | 46.97513 | 6.26174 | 27975 ft | 285 kts | 348° |
| 2026-04-13 16:26 | 46.99469 | 6.25678 | 27974 ft | 285 kts | 348° |
| 2026-04-13 16:26 | 47.01427 | 6.25183 | 27978 ft | 286 kts | 348° |
| 2026-04-13 16:26 | 47.03387 | 6.24686 | 27976 ft | 286 kts | 348° |
| 2026-04-13 16:27 | 47.05355 | 6.24186 | 27978 ft | 286 kts | 348° |
| 2026-04-13 16:27 | 47.05680 | 6.24108 | 27979 ft | 286 kts | 349° |
| 2026-04-13 16:27 | 47.07335 | 6.23993 | 27991 ft | 288 kts | 2° |
| 2026-04-13 16:28 | 47.09235 | 6.24192 | 27996 ft | 288 kts | 4° |
| 2026-04-13 16:28 | 47.11240 | 6.24403 | 27990 ft | 289 kts | 3° |
| 2026-04-13 16:28 | 47.13248 | 6.24586 | 27986 ft | 289 kts | 2° |
| 2026-04-13 16:28 | 47.15259 | 6.24765 | 27987 ft | 289 kts | 2° |
| 2026-04-13 16:29 | 47.17250 | 6.24951 | 27986 ft | 290 kts | 3° |
| 2026-04-13 16:29 | 47.19264 | 6.25142 | 27983 ft | 290 kts | 2° |
| 2026-04-13 16:29 | 47.21282 | 6.25331 | 27982 ft | 291 kts | 2° |